Time;durP1;ratioP1;P1;durP2;ratioP2;P2;SDS_P1;SDS_P2;PMS_P1;PMS_P2;Temp;Humidity;BMP_temperature;BMP_pressure;BME280_temperature;BME280_humidity;BME280_pressure;Samples;Min_cycle;Max_cycle;Signal;HPM_P1;HPM_P2
2021/03/28 00:07:35;;;;;;;25.65;14.73;;;;;;;5.02;100.00;101025.67;10395691;85;98773;-85
2021/03/28 00:22:44;;;;;;;15.88;8.53;;;;;;;5.06;100.00;101045.39;10414730;84;99033;-85
2021/03/28 00:38:02;;;;;;;10.90;6.83;;;;;;;5.20;100.00;101045.94;10420090;83;98582;-84
2021/03/28 00:53:11;;;;;;;13.98;7.37;;;;;;;5.14;100.00;101052.32;10371832;84;98654;-86
2021/03/28 01:08:23;;;;;;;13.38;8.18;;;;;;;5.11;100.00;101057.69;10034020;87;98750;-85
2021/03/28 01:23:35;;;;;;;10.23;7.22;;;;;;;5.05;100.00;101056.70;10424726;85;98735;-85
2021/03/28 01:38:43;;;;;;;71.33;32.53;;;;;;;5.11;100.00;101057.69;10429373;84;97764;-86
2021/03/28 01:53:56;;;;;;;11.85;6.60;;;;;;;5.05;100.00;101066.64;10431113;83;98898;-85
2021/03/28 02:09:06;;;;;;;14.35;7.90;;;;;;;4.97;100.00;101070.94;10490985;83;97629;-85
2021/03/28 02:24:17;;;;;;;12.35;6.87;;;;;;;4.86;100.00;101073.27;10554585;84;98834;-86
2021/03/28 02:39:28;;;;;;;9.33;6.65;;;;;;;4.92;100.00;101083.80;10521455;84;98746;-86
2021/03/28 02:55:10;;;;;;;20.00;11.18;;;;;;;4.73;100.00;101092.55;10635667;83;98617;-85
2021/03/28 03:10:46;;;;;;;4.03;2.72;;;;;;;4.68;100.00;101110.60;10669367;83;98811;-84
2021/03/28 03:26:40;;;;;;;4.28;2.98;;;;;;;4.30;100.00;101128.45;10670983;82;98504;-83
2021/03/28 03:42:00;;;;;;;4.63;3.00;;;;;;;4.13;100.00;101146.99;10679505;81;98437;-83
2021/03/28 03:57:14;;;;;;;3.30;2.45;;;;;;;4.19;100.00;101158.01;10662083;82;98532;-83
2021/03/28 04:12:58;;;;;;;3.15;2.10;;;;;;;3.66;100.00;101194.98;10628329;82;98622;-83
2021/03/28 04:28:38;;;;;;;2.22;1.60;;;;;;;2.99;100.00;101211.23;10622851;82;98415;-82
2021/03/28 04:44:25;;;;;;;5.10;2.75;;;;;;;2.74;100.00;101231.30;10627497;81;98375;-83
2021/03/28 05:00:42;;;;;;;4.75;2.92;;;;;;;2.70;100.00;101251.77;10660523;82;98475;-83
2021/03/28 05:16:54;;;;;;;6.20;4.72;;;;;;;2.73;100.00;101276.25;10664096;82;98420;-83
2021/03/28 05:32:35;;;;;;;11.85;5.78;;;;;;;2.71;100.00;101297.52;10677481;82;98519;-83
2021/03/28 05:48:27;;;;;;;32.13;19.25;;;;;;;2.87;100.00;101318.48;10682630;82;98485;-84
2021/03/28 06:04:40;;;;;;;15.88;7.58;;;;;;;3.11;100.00;101342.58;10680458;82;99099;-84
2021/03/28 06:20:30;;;;;;;33.67;20.08;;;;;;;3.57;100.00;101358.86;10687492;82;98408;-82
2021/03/28 06:36:22;;;;;;;32.50;15.10;;;;;;;3.87;100.00;101369.31;10673385;82;98731;-82
2021/03/28 06:51:44;;;;;;;31.52;19.02;;;;;;;4.09;100.00;101386.11;10677200;81;98897;-85
2021/03/28 07:06:55;;;;;;;86.75;44.80;;;;;;;4.31;100.00;101410.70;10633351;82;98701;-86
2021/03/28 07:22:36;;;;;;;102.72;61.00;;;;;;;4.48;100.00;101420.36;10727376;81;98627;-86
2021/03/28 07:38:54;;;;;;;21.35;11.95;;;;;;;4.48;100.00;101427.69;10640263;82;99270;-77
2021/03/28 07:54:57;;;;;;;25.30;14.98;;;;;;;4.99;100.00;101432.38;10631381;82;98951;-78
2021/03/28 08:10:55;;;;;;;39.67;23.02;;;;;;;4.82;100.00;101468.25;10450372;83;98934;-79
2021/03/28 08:26:40;;;;;;;32.25;18.05;;;;;;;4.77;100.00;101477.54;10691536;81;98805;-80
2021/03/28 08:42:41;;;;;;;63.98;32.17;;;;;;;5.09;100.00;101481.73;10666670;79;98838;-85
2021/03/28 08:57:55;;;;;;;81.92;43.58;;;;;;;5.19;100.00;101488.67;10338644;84;98974;-84
2021/03/28 09:13:26;;;;;;;40.28;17.10;;;;;;;5.55;100.00;101509.14;10424428;83;98788;-88
2021/03/28 09:28:46;;;;;;;34.92;14.68;;;;;;;6.43;100.00;101491.37;10404819;83;98698;-84
2021/03/28 09:43:53;;;;;;;;;;;;;;;6.29;100.00;101506.86;10683479;81;98939;-84
2021/03/28 09:59:41;;;;;;;15.65;6.78;;;;;;;6.83;100.00;101498.88;10709905;81;84677;-85
2021/03/28 10:15:03;;;;;;;10.93;5.90;;;;;;;7.10;100.00;101499.17;10642937;82;98445;-90
2021/03/28 10:30:23;;;;;;;23.73;11.15;;;;;;;6.64;99.80;101510.74;10663005;81;98914;-87
2021/03/28 10:45:41;;;;;;;22.07;10.67;;;;;;;6.18;99.74;101516.97;10653524;81;98505;-87
2021/03/28 11:01:24;;;;;;;21.35;10.93;;;;;;;6.44;100.00;101520.43;10633968;82;98561;-85
2021/03/28 11:16:46;;;;;;;17.27;9.45;;;;;;;6.75;100.00;101544.91;10657360;81;98745;-86
2021/03/28 11:32:03;;;;;;;22.77;9.33;;;;;;;6.37;100.00;101557.30;10401831;83;98472;-81
2021/03/28 11:47:31;;;;;;;16.73;10.23;;;;;;;5.96;96.14;101579.23;10634813;82;98473;-80
2021/03/28 12:02:35;;;;;;;20.30;10.97;;;;;;;6.79;83.50;101579.04;10651384;81;98674;-81
2021/03/28 12:17:40;;;;;;;13.65;7.92;;;;;;;7.07;80.21;101584.59;10645452;81;99683;-82
2021/03/28 12:33:08;;;;;;;15.93;8.15;;;;;;;6.58;76.32;101593.19;10640382;81;98251;-80
2021/03/28 12:48:34;;;;;;;32.53;18.10;;;;;;;6.89;75.82;101582.47;10643925;82;98475;-84
2021/03/28 13:03:42;;;;;;;15.28;10.48;;;;;;;7.45;76.81;101579.09;10651892;82;98623;-85
2021/03/28 13:18:50;;;;;;;13.28;7.83;;;;;;;7.60;79.00;101574.80;10615000;82;98606;-83
2021/03/28 13:34:00;;;;;;;20.30;10.30;;;;;;;8.18;72.98;101580.30;10609022;82;98372;-83
2021/03/28 13:49:07;;;;;;;50.35;20.00;;;;;;;8.93;66.29;101571.13;10662448;82;98381;-84
2021/03/28 14:04:55;;;;;;;27.63;12.80;;;;;;;9.27;65.31;101569.06;10653162;82;98587;-84
2021/03/28 14:20:15;;;;;;;20.55;11.78;;;;;;;12.06;58.57;101573.03;10585306;82;98672;-82
2021/03/28 14:35:50;;;;;;;39.18;19.02;;;;;;;15.97;47.25;101556.11;10637239;82;99007;-82
2021/03/28 14:51:00;;;;;;;38.83;17.67;;;;;;;11.48;54.20;101549.14;10634049;80;98799;-82
2021/03/28 15:06:16;;;;;;;20.85;9.88;;;;;;;11.77;55.78;101546.20;10658737;81;98872;-81
2021/03/28 15:21:27;;;;;;;11.20;4.20;;;;;;;13.56;52.38;101550.18;10636927;81;98786;-87
2021/03/28 15:36:41;;;;;;;7.05;3.33;;;;;;;12.98;50.90;101555.13;10646946;82;98713;-82
2021/03/28 15:52:01;;;;;;;8.28;4.22;;;;;;;11.71;52.05;101548.81;10650192;81;98585;-83
2021/03/28 16:07:35;;;;;;;11.65;6.33;;;;;;;11.01;54.23;101550.27;10689739;81;98533;-81
2021/03/28 16:22:58;;;;;;;35.38;15.58;;;;;;;10.60;56.20;101545.61;10649672;81;98892;-82
2021/03/28 16:38:14;;;;;;;24.75;10.05;;;;;;;9.38;59.28;101536.48;10653763;82;98736;-89
2021/03/28 16:53:50;;;;;;;22.95;9.93;;;;;;;9.02;62.21;101528.69;10648205;82;97670;-82
2021/03/28 17:09:07;;;;;;;64.40;30.50;;;;;;;8.52;64.01;101522.15;10661954;80;98424;-81
2021/03/28 17:24:24;;;;;;;27.35;13.78;;;;;;;7.90;68.73;101523.08;10662154;82;98500;-82
2021/03/28 17:39:53;;;;;;;27.60;14.03;;;;;;;7.42;73.81;101525.28;10628702;82;98599;-82
2021/03/28 17:55:40;;;;;;;231.75;111.88;;;;;;;7.19;75.83;101537.43;10644130;81;98489;-82
2021/03/28 18:10:49;;;;;;;28.27;14.68;;;;;;;7.08;77.42;101521.05;10241630;84;99041;-82
2021/03/28 18:25:56;;;;;;;32.20;16.87;;;;;;;6.92;79.26;101523.64;10631261;81;98568;-82
2021/03/28 18:41:06;;;;;;;39.27;19.17;;;;;;;6.81;82.20;101523.73;10595240;82;98585;-80
2021/03/28 18:56:31;;;;;;;33.48;14.83;;;;;;;6.49;85.62;101540.59;10629918;82;98626;-80
2021/03/28 19:11:51;;;;;;;45.90;24.30;;;;;;;6.20;89.09;101543.34;10562767;81;98800;-80
2021/03/28 19:27:13;;;;;;;95.27;37.00;;;;;;;6.00;89.83;101545.63;10551250;79;98542;-80
2021/03/28 19:42:27;;;;;;;99.70;32.10;;;;;;;5.90;89.29;101551.72;10510687;81;98556;-80
2021/03/28 19:57:40;;;;;;;76.15;26.23;;;;;;;5.74;89.50;101546.41;10564979;82;98556;-80
2021/03/28 20:12:44;;;;;;;39.55;17.75;;;;;;;5.79;88.50;101547.03;10648604;80;98611;-79
2021/03/28 20:28:20;;;;;;;28.77;11.95;;;;;;;5.86;88.55;101537.61;10619729;81;98758;-78
2021/03/28 20:43:36;;;;;;;27.48;11.75;;;;;;;5.96;88.51;101529.73;10642456;82;98506;-78
2021/03/28 20:58:44;;;;;;;;;;;;;;;5.89;89.47;101521.84;10640084;82;98514;-78
2021/03/28 21:13:54;;;;;;;27.73;11.93;;;;;;;5.93;90.01;101529.42;10659380;82;83684;-79
2021/03/28 21:29:00;;;;;;;25.82;11.08;;;;;;;6.01;89.28;101528.25;10658610;82;98511;-79
2021/03/28 21:44:07;;;;;;;26.75;10.53;;;;;;;5.97;89.66;101532.26;10645309;82;98570;-79
2021/03/28 21:59:17;;;;;;;29.18;11.38;;;;;;;5.97;89.47;101528.83;10641540;82;98467;-79
2021/03/28 22:14:25;;;;;;;20.82;10.23;;;;;;;6.03;89.42;101527.27;10549365;82;98614;-78
2021/03/28 22:29:33;;;;;;;24.27;10.50;;;;;;;5.96;89.65;101527.12;10555493;81;98653;-78
2021/03/28 22:44:38;;;;;;;26.70;9.28;;;;;;;6.04;87.94;101520.28;10550104;82;98571;-78
2021/03/28 22:59:43;;;;;;;27.32;11.05;;;;;;;6.18;87.41;101506.55;10523960;83;98420;-79
2021/03/28 23:14:52;;;;;;;25.68;11.57;;;;;;;6.15;88.02;101512.31;10521746;81;98577;-79
2021/03/28 23:29:56;;;;;;;24.37;11.22;;;;;;;6.20;89.42;101514.67;10525498;83;98535;-79
2021/03/28 23:45:03;;;;;;;29.75;13.15;;;;;;;6.22;89.38;101515.45;10538775;82;98577;-78
